createdAt,value
2022-11-21T00:00:07.561Z,10.95
2022-11-21T00:02:53.602Z,10.95
2022-11-21T00:05:43.663Z,10.99
2022-11-21T00:08:30.635Z,10.94
2022-11-21T00:11:17.100Z,10.93
2022-11-21T00:14:03.440Z,10.97
2022-11-21T00:16:54.560Z,10.98
2022-11-21T00:19:43.037Z,11.01
2022-11-21T00:22:29.131Z,10.97
2022-11-21T00:25:15.484Z,10.93
2022-11-21T00:28:01.168Z,10.79
2022-11-21T00:30:46.910Z,10.67
2022-11-21T00:33:34.303Z,10.53
2022-11-21T00:36:20.507Z,10.28
2022-11-21T00:39:06.614Z,10.15
2022-11-21T00:41:52.367Z,10.02
2022-11-21T00:44:38.161Z,9.90
2022-11-21T00:47:23.899Z,9.76
2022-11-21T00:50:10.056Z,9.63
2022-11-21T00:52:57.404Z,9.50
2022-11-21T00:55:43.487Z,9.29
2022-11-21T00:58:29.162Z,9.20
2022-11-21T01:01:16.452Z,9.07
2022-11-21T01:04:03.531Z,8.95
2022-11-21T01:06:49.329Z,8.93
2022-11-21T01:09:35.665Z,8.83
2022-11-21T01:12:21.910Z,8.80
2022-11-21T01:15:08.664Z,8.72
2022-11-21T01:17:54.503Z,8.71
2022-11-21T01:20:40.648Z,8.67
2022-11-21T01:23:26.646Z,8.65
2022-11-21T01:26:15.211Z,8.58
2022-11-21T01:29:01.030Z,8.51
2022-11-21T01:31:46.992Z,8.43
2022-11-21T01:34:32.824Z,8.40
2022-11-21T01:37:18.807Z,8.34
2022-11-21T01:40:04.864Z,8.25
2022-11-21T01:42:55.770Z,8.21
2022-11-21T01:46:04.922Z,8.13
2022-11-21T01:48:54.210Z,8.10
2022-11-21T01:52:05.835Z,7.98
2022-11-21T01:54:55.889Z,7.96
2022-11-21T01:57:48.177Z,7.92
2022-11-21T02:00:38.171Z,7.84
2022-11-21T02:03:29.744Z,7.78
2022-11-21T02:06:15.700Z,7.79
2022-11-21T02:09:01.913Z,7.73
2022-11-21T02:12:29.537Z,7.66
2022-11-21T02:15:16.785Z,7.65
2022-11-21T02:18:02.818Z,7.64
2022-11-21T02:20:59.506Z,7.62
2022-11-21T02:24:12.809Z,7.63
2022-11-21T02:27:00.386Z,7.59
2022-11-21T02:29:46.180Z,7.64
2022-11-21T02:32:37.274Z,7.62
2022-11-21T02:35:23.710Z,7.57
2022-11-21T02:38:27.601Z,7.51
2022-11-21T02:41:17.475Z,7.52
2022-11-21T02:44:11.124Z,7.53
2022-11-21T02:46:58.019Z,7.47
2022-11-21T02:50:02.219Z,7.45
2022-11-21T02:52:48.352Z,7.41
2022-11-21T02:55:34.442Z,7.39
2022-11-21T02:58:26.171Z,7.43
2022-11-21T03:01:12.358Z,7.48
2022-11-21T03:03:58.201Z,7.50
2022-11-21T03:06:44.267Z,7.46
2022-11-21T03:09:29.977Z,7.39
2022-11-21T03:12:15.984Z,7.24
2022-11-21T03:15:01.982Z,7.17
2022-11-21T03:17:49.598Z,7.00
2022-11-21T03:20:35.975Z,6.82
2022-11-21T03:23:21.878Z,6.77
2022-11-21T03:26:07.608Z,6.66
2022-11-21T03:28:53.365Z,6.55
2022-11-21T03:31:39.058Z,6.45
2022-11-21T03:34:25.320Z,6.44
2022-11-21T03:37:11.239Z,6.41
2022-11-21T03:39:56.921Z,6.23
2022-11-21T03:42:42.842Z,6.34
2022-11-21T03:45:28.740Z,6.32
2022-11-21T03:48:20.373Z,6.29
2022-11-21T03:51:06.218Z,6.22
2022-11-21T03:53:55.388Z,6.27
2022-11-21T03:56:41.324Z,6.22
2022-11-21T03:59:27.060Z,6.15
2022-11-21T04:02:12.811Z,6.18
2022-11-21T04:04:58.482Z,6.23
2022-11-21T04:07:46.595Z,6.20
2022-11-21T04:10:33.598Z,6.19
2022-11-21T04:13:22.878Z,6.17
2022-11-21T04:16:12.315Z,6.02
2022-11-21T04:18:58.226Z,5.79
2022-11-21T04:21:44.589Z,6.09
2022-11-21T04:24:31.647Z,6.07
2022-11-21T04:27:17.599Z,6.10
2022-11-21T04:30:03.731Z,6.15
2022-11-21T04:32:53.774Z,6.14
2022-11-21T04:35:39.471Z,6.19
2022-11-21T04:38:25.437Z,6.20
2022-11-21T04:41:11.424Z,6.16
2022-11-21T04:43:59.512Z,6.21
2022-11-21T04:46:45.435Z,6.20
2022-11-21T04:49:31.152Z,6.19
2022-11-21T04:52:17.003Z,6.17
2022-11-21T04:55:03.890Z,6.16
2022-11-21T04:57:50.445Z,6.11
2022-11-21T05:00:36.362Z,6.12
2022-11-21T05:03:22.532Z,6.04
2022-11-21T05:06:08.921Z,5.98
2022-11-21T05:08:54.793Z,6.02
2022-11-21T05:11:59.443Z,6.04
2022-11-21T05:14:45.485Z,6.04
2022-11-21T05:17:31.352Z,6.02
2022-11-21T05:20:18.525Z,5.97
2022-11-21T05:23:04.483Z,5.96
2022-11-21T05:25:50.199Z,5.94
2022-11-21T05:28:35.954Z,5.89
2022-11-21T05:31:21.698Z,5.93
2022-11-21T05:34:07.492Z,5.91
2022-11-21T05:37:03.393Z,5.93
2022-11-21T05:39:49.438Z,5.92
2022-11-21T05:42:58.105Z,5.91
2022-11-21T05:45:45.185Z,5.95
2022-11-21T05:48:30.989Z,5.85
2022-11-21T05:51:17.595Z,5.83
2022-11-21T05:54:03.941Z,5.92
2022-11-21T05:56:49.813Z,5.93
2022-11-21T05:59:35.811Z,5.93
2022-11-21T06:02:41.879Z,5.99
2022-11-21T06:05:28.037Z,6.03
2022-11-21T06:08:14.075Z,6.07
2022-11-21T06:10:59.980Z,6.18
2022-11-21T06:13:46.130Z,6.19
2022-11-21T06:16:32.152Z,6.26
2022-11-21T06:19:17.910Z,6.26
2022-11-21T06:22:05.203Z,6.30
2022-11-21T06:24:51.373Z,6.31
2022-11-21T06:27:37.019Z,6.32
2022-11-21T06:30:22.736Z,6.33
2022-11-21T06:33:08.623Z,6.35
2022-11-21T06:35:54.725Z,6.31
2022-11-21T06:38:41.031Z,6.34
2022-11-21T06:41:30.315Z,6.30
2022-11-21T06:44:16.035Z,6.35
2022-11-21T06:47:01.779Z,6.34
2022-11-21T06:49:47.864Z,6.42
2022-11-21T06:52:34.538Z,6.45
2022-11-21T06:55:21.558Z,6.56
2022-11-21T06:58:07.592Z,6.61
2022-11-21T07:00:53.519Z,6.62
2022-11-21T07:03:39.806Z,6.68
2022-11-21T07:06:25.857Z,6.79
2022-11-21T07:09:32.077Z,6.83
2022-11-21T07:12:36.619Z,6.81
2022-11-21T07:15:22.760Z,6.83
2022-11-21T07:18:08.459Z,6.88
2022-11-21T07:21:01.416Z,6.95
2022-11-21T07:23:47.809Z,6.99
2022-11-21T07:26:33.912Z,7.01
2022-11-21T07:29:19.824Z,7.18
2022-11-21T07:32:05.521Z,7.22
2022-11-21T07:34:51.527Z,7.24
2022-11-21T07:37:39.616Z,7.24
2022-11-21T07:40:25.831Z,7.23
2022-11-21T07:43:11.820Z,7.20
2022-11-21T07:45:57.928Z,7.21
2022-11-21T07:48:44.109Z,7.23
2022-11-21T07:51:30.052Z,7.23
2022-11-21T07:54:16.290Z,7.24
2022-11-21T07:57:02.290Z,7.24
2022-11-21T07:59:48.061Z,7.31
2022-11-21T08:02:33.863Z,7.32
2022-11-21T08:05:19.975Z,7.36
2022-11-21T08:08:06.742Z,7.37
2022-11-21T08:10:52.819Z,7.44
2022-11-21T08:13:38.589Z,7.48
2022-11-21T08:16:28.151Z,7.56
2022-11-21T08:19:14.456Z,7.70
2022-11-21T08:22:01.629Z,7.78
2022-11-21T08:24:47.923Z,7.86
2022-11-21T08:27:33.911Z,7.95
2022-11-21T08:30:20.084Z,8.02
2022-11-21T08:33:06.785Z,8.07
2022-11-21T08:35:52.534Z,8.11
2022-11-21T08:38:38.479Z,8.09
2022-11-21T08:41:43.174Z,8.06
2022-11-21T08:44:30.823Z,8.01
2022-11-21T08:47:17.113Z,8.02
2022-11-21T08:50:08.640Z,8.04
2022-11-21T08:53:00.872Z,8.11
2022-11-21T08:55:46.868Z,8.20
2022-11-21T08:58:32.598Z,8.22
2022-11-21T09:01:18.663Z,8.37
2022-11-21T09:04:05.683Z,8.45
2022-11-21T09:06:51.629Z,8.54
2022-11-21T09:09:37.627Z,8.60
2022-11-21T09:12:23.357Z,8.74
2022-11-21T09:15:29.601Z,8.87
2022-11-21T09:18:15.763Z,8.97
2022-11-21T09:21:03.002Z,9.10
2022-11-21T09:23:50.989Z,9.21
2022-11-21T09:26:37.114Z,9.28
2022-11-21T09:29:22.999Z,9.40
2022-11-21T09:32:08.808Z,9.43
2022-11-21T09:34:54.420Z,9.57
2022-11-21T09:37:40.489Z,9.67
2022-11-21T09:40:26.990Z,9.71
2022-11-21T09:43:36.074Z,9.81
2022-11-21T09:46:23.448Z,9.87
2022-11-21T09:49:12.793Z,10.03
2022-11-21T09:52:00.599Z,10.16
2022-11-21T09:54:51.094Z,10.27
2022-11-21T09:57:37.355Z,10.39
2022-11-21T10:00:25.137Z,10.50
2022-11-21T10:03:13.309Z,10.53
2022-11-21T10:06:04.962Z,10.56
2022-11-21T10:09:15.217Z,10.61
2022-11-21T10:12:38.108Z,10.68
2022-11-21T10:15:35.598Z,10.68
2022-11-21T10:18:50.244Z,10.73
2022-11-21T10:22:04.932Z,10.72
2022-11-21T10:25:25.431Z,10.71
2022-11-21T10:28:58.610Z,10.69
2022-11-21T10:31:45.130Z,10.64
2022-11-21T10:34:36.021Z,10.69
2022-11-21T10:37:33.014Z,10.74
2022-11-21T10:40:29.185Z,10.78
2022-11-21T10:43:33.486Z,10.79
2022-11-21T10:46:19.590Z,10.80
2022-11-21T10:49:08.215Z,10.80
2022-11-21T10:52:04.533Z,10.77
2022-11-21T10:55:05.031Z,10.74
2022-11-21T10:57:52.025Z,10.75
2022-11-21T11:00:38.267Z,10.73
2022-11-21T11:03:25.757Z,10.66
2022-11-21T11:06:11.831Z,10.60
2022-11-21T11:08:58.121Z,10.55
2022-11-21T11:11:44.065Z,10.47
2022-11-21T11:14:33.123Z,10.46
2022-11-21T11:17:33.018Z,10.46
2022-11-21T11:20:41.125Z,10.37
2022-11-21T11:23:27.895Z,10.33
2022-11-21T11:26:28.876Z,10.32
2022-11-21T11:29:15.665Z,10.28
2022-11-21T11:32:04.622Z,10.23
2022-11-21T11:34:56.286Z,10.19
2022-11-21T11:37:43.349Z,10.18
2022-11-21T11:40:42.792Z,10.15
2022-11-21T11:43:59.277Z,10.13
2022-11-21T11:47:27.428Z,10.10
2022-11-21T11:50:19.477Z,10.08
2022-11-21T11:53:14.675Z,10.08
2022-11-21T11:56:09.366Z,10.03
2022-11-21T11:59:28.632Z,9.97
2022-11-21T12:02:22.373Z,9.92
2022-11-21T12:05:14.762Z,9.88
2022-11-21T12:11:54.980Z,9.77
2022-11-21T12:15:07.001Z,9.68
2022-11-21T12:17:58.923Z,9.70
2022-11-21T12:21:15.289Z,9.67
2022-11-21T12:24:04.250Z,9.62
2022-11-21T12:26:58.499Z,9.67
2022-11-21T12:30:05.066Z,9.68
2022-11-21T12:32:51.211Z,9.70
2022-11-21T12:35:42.861Z,9.67
2022-11-21T12:39:06.316Z,9.59
2022-11-21T12:42:23.488Z,9.50
2022-11-21T12:45:27.216Z,9.48
2022-11-21T12:48:54.121Z,9.37
2022-11-21T12:52:05.016Z,9.23
2022-11-21T12:55:11.674Z,9.13
2022-11-21T12:58:05.460Z,9.02
2022-11-21T13:01:06.946Z,8.93
2022-11-21T13:04:08.882Z,8.87
2022-11-21T13:06:55.897Z,8.86
2022-11-21T13:09:43.823Z,8.86
2022-11-21T13:12:54.210Z,8.82
2022-11-21T13:15:49.642Z,8.79
2022-11-21T13:18:48.224Z,8.71
2022-11-21T13:21:49.824Z,8.65
2022-11-21T13:24:44.934Z,8.59
2022-11-21T13:27:39.202Z,8.54
2022-11-21T13:30:25.824Z,8.49
2022-11-21T13:33:37.510Z,8.45
2022-11-21T13:36:29.454Z,8.40
2022-11-21T13:39:15.217Z,8.39
2022-11-21T13:42:26.576Z,8.38
2022-11-21T13:45:43.874Z,8.36
2022-11-21T13:49:02.400Z,8.35
2022-11-21T13:51:52.800Z,8.32
2022-11-21T13:55:04.627Z,8.26
2022-11-21T13:57:59.206Z,8.28
2022-11-21T14:01:03.909Z,8.27
2022-11-21T14:04:27.715Z,8.27
2022-11-21T14:07:34.424Z,8.17
2022-11-21T14:10:20.441Z,8.31
2022-11-21T14:13:06.274Z,8.30
2022-11-21T14:16:47.147Z,8.29
2022-11-21T14:19:34.806Z,8.26
2022-11-21T14:22:48.696Z,8.21
2022-11-21T14:25:42.208Z,8.20
2022-11-21T14:28:30.868Z,8.19
2022-11-21T14:31:17.105Z,8.16
2022-11-21T14:34:03.254Z,8.13
2022-11-21T14:36:49.625Z,8.10
2022-11-21T14:39:44.143Z,8.07
2022-11-21T14:42:37.113Z,8.01
2022-11-21T14:45:24.327Z,7.90
2022-11-21T14:48:12.913Z,7.96
2022-11-21T14:51:00.054Z,7.96
2022-11-21T14:53:48.030Z,7.97
2022-11-21T14:56:34.888Z,7.97
2022-11-21T14:59:33.011Z,7.97
2022-11-21T15:02:27.736Z,8.00
2022-11-21T15:05:24.841Z,8.01
2022-11-21T15:08:53.739Z,8.01
2022-11-21T15:12:01.571Z,8.00
2022-11-21T15:14:54.975Z,8.00
2022-11-21T15:17:57.513Z,8.00
2022-11-21T15:20:49.907Z,8.03
2022-11-21T15:23:40.116Z,8.06
2022-11-21T15:26:30.418Z,8.08
2022-11-21T15:29:21.251Z,8.12
2022-11-21T15:32:15.666Z,8.13
2022-11-21T15:35:31.978Z,8.14
2022-11-21T15:38:28.352Z,8.15
2022-11-21T15:41:14.663Z,8.18
2022-11-21T15:44:00.770Z,8.17
2022-11-21T15:46:47.224Z,8.18
2022-11-21T15:49:33.720Z,8.15
2022-11-21T15:52:20.060Z,8.19
2022-11-21T15:55:12.911Z,8.14
2022-11-21T15:57:58.969Z,8.20
2022-11-21T16:00:44.853Z,8.20
2022-11-21T16:03:30.997Z,8.19
2022-11-21T16:06:17.383Z,8.21
2022-11-21T16:09:04.064Z,8.23
2022-11-21T16:11:49.969Z,8.25
2022-11-21T16:14:35.852Z,8.26
2022-11-21T16:17:21.884Z,8.26
2022-11-21T16:20:08.816Z,8.23
2022-11-21T16:22:58.021Z,8.22
2022-11-21T16:25:54.145Z,8.22
2022-11-21T16:28:40.073Z,8.16
2022-11-21T16:31:30.833Z,8.15
2022-11-21T16:34:20.375Z,8.10
2022-11-21T16:37:07.757Z,8.08
2022-11-21T16:39:53.672Z,8.00
2022-11-21T16:42:39.539Z,8.03
2022-11-21T16:45:25.750Z,8.00
2022-11-21T16:48:11.745Z,7.96
2022-11-21T16:51:12.697Z,7.96
2022-11-21T16:54:01.745Z,7.92
2022-11-21T16:56:51.944Z,7.89
2022-11-21T16:59:37.979Z,7.83
2022-11-21T17:02:25.063Z,7.79
2022-11-21T17:05:11.144Z,7.77
2022-11-21T17:07:57.502Z,7.74
2022-11-21T17:10:43.224Z,7.79
2022-11-21T17:13:29.465Z,7.80
2022-11-21T17:16:17.467Z,7.82
2022-11-21T17:19:04.403Z,7.80
2022-11-21T17:21:52.638Z,7.86
2022-11-21T17:24:38.303Z,7.82
2022-11-21T17:27:24.340Z,7.86
2022-11-21T17:30:10.921Z,7.85
2022-11-21T17:32:57.050Z,7.83
2022-11-21T17:35:44.276Z,7.84
2022-11-21T17:38:30.363Z,7.84
2022-11-21T17:41:17.994Z,7.84
2022-11-21T17:44:04.105Z,7.83
2022-11-21T17:46:50.090Z,7.82
2022-11-21T17:49:37.162Z,7.79
2022-11-21T17:52:23.110Z,7.76
2022-11-21T17:55:09.011Z,7.68
2022-11-21T17:57:55.192Z,7.71
2022-11-21T18:00:41.171Z,7.67
2022-11-21T18:03:27.364Z,7.65
2022-11-21T18:06:15.160Z,7.62
2022-11-21T18:09:01.396Z,7.59
2022-11-21T18:11:47.578Z,7.56
2022-11-21T18:14:35.063Z,7.52
2022-11-21T18:17:20.918Z,7.41
2022-11-21T18:20:07.517Z,7.49
2022-11-21T18:22:53.693Z,7.53
2022-11-21T18:25:39.832Z,7.54
2022-11-21T18:28:25.807Z,7.60
2022-11-21T18:31:14.212Z,7.62
2022-11-21T18:34:02.459Z,7.62
2022-11-21T18:36:48.797Z,7.66
2022-11-21T18:39:34.972Z,7.68
2022-11-21T18:42:21.287Z,7.73
2022-11-21T18:45:07.638Z,7.74
2022-11-21T18:47:53.793Z,7.77
2022-11-21T18:50:40.106Z,7.80
2022-11-21T18:53:26.218Z,7.82
2022-11-21T18:56:14.184Z,7.79
2022-11-21T18:58:59.980Z,7.84
2022-11-21T19:01:46.285Z,7.83
2022-11-21T19:04:32.520Z,7.81
2022-11-21T19:07:18.469Z,7.78
2022-11-21T19:10:35.517Z,7.78
2022-11-21T19:13:12.552Z,7.73
2022-11-21T19:16:01.726Z,7.67
2022-11-21T19:19:05.459Z,7.71
2022-11-21T19:21:55.895Z,7.62
2022-11-21T19:24:41.693Z,7.68
2022-11-21T19:27:27.611Z,7.65
2022-11-21T19:30:13.847Z,7.60
2022-11-21T19:32:59.941Z,7.63
2022-11-21T19:35:45.688Z,7.60
2022-11-21T19:38:31.778Z,7.60
2022-11-21T19:41:25.353Z,7.62
2022-11-21T19:44:11.726Z,7.63
2022-11-21T19:46:57.934Z,7.61
2022-11-21T19:49:43.939Z,7.64
2022-11-21T19:52:29.849Z,7.63
2022-11-21T19:55:15.939Z,7.60
2022-11-21T19:58:01.963Z,7.64
2022-11-21T20:00:47.924Z,7.66
2022-11-21T20:03:34.860Z,7.67
2022-11-21T20:06:26.604Z,7.67
2022-11-21T20:09:15.753Z,7.70
2022-11-21T20:12:02.312Z,7.69
2022-11-21T20:14:48.540Z,7.68
2022-11-21T20:17:34.192Z,7.72
2022-11-21T20:20:20.043Z,7.76
2022-11-21T20:23:06.265Z,7.77
2022-11-21T20:25:52.127Z,7.66
2022-11-21T20:28:38.220Z,7.77
2022-11-21T20:31:27.269Z,7.76
2022-11-21T20:34:13.997Z,7.76
2022-11-21T20:37:00.810Z,7.80
2022-11-21T20:39:47.451Z,7.80
2022-11-21T20:42:34.494Z,7.75
2022-11-21T20:48:26.344Z,7.76
2022-11-21T20:54:20.338Z,7.80
2022-11-21T20:57:10.416Z,7.78
2022-11-21T21:00:00.514Z,7.81
2022-11-21T21:02:46.539Z,7.81
2022-11-21T21:05:33.662Z,7.79
2022-11-21T21:08:19.473Z,7.83
2022-11-21T21:11:30.525Z,7.81
2022-11-21T21:14:18.196Z,7.85
2022-11-21T21:17:03.969Z,7.83
2022-11-21T21:19:49.840Z,7.83
2022-11-21T21:22:36.226Z,7.82
2022-11-21T21:25:22.271Z,7.82
2022-11-21T21:28:08.471Z,7.84
2022-11-21T21:30:54.439Z,7.85
2022-11-21T21:33:40.905Z,7.86
2022-11-21T21:36:27.534Z,7.82
2022-11-21T21:39:13.476Z,7.81
2022-11-21T21:41:59.320Z,7.81
2022-11-21T21:44:44.968Z,7.81
2022-11-21T21:47:30.702Z,7.77
2022-11-21T21:50:16.478Z,7.79
2022-11-21T21:53:03.193Z,7.76
2022-11-21T21:55:48.946Z,7.78
2022-11-21T21:58:36.858Z,7.80
2022-11-21T22:01:31.769Z,7.78
2022-11-21T22:04:17.794Z,7.75
2022-11-21T22:07:05.791Z,7.67
2022-11-21T22:09:52.068Z,7.67
2022-11-21T22:12:41.187Z,7.64
2022-11-21T22:15:29.769Z,7.60
2022-11-21T22:18:15.570Z,7.58
2022-11-21T22:21:01.431Z,7.57
2022-11-21T22:24:09.754Z,7.56
2022-11-21T22:26:53.590Z,7.56
2022-11-21T22:29:39.502Z,7.56
2022-11-21T22:32:25.282Z,7.54
2022-11-21T22:35:11.425Z,7.54
2022-11-21T22:37:57.133Z,7.53
2022-11-21T22:40:43.681Z,7.56
2022-11-21T22:43:30.123Z,7.58
2022-11-21T22:46:16.354Z,7.59
2022-11-21T22:49:02.275Z,7.62
2022-11-21T22:51:48.098Z,7.63
2022-11-21T22:54:33.895Z,7.58
2022-11-21T22:57:20.173Z,7.65
2022-11-21T23:00:08.404Z,7.66
2022-11-21T23:02:54.447Z,7.64
2022-11-21T23:05:40.321Z,7.59
2022-11-21T23:08:26.691Z,7.50
2022-11-21T23:11:24.620Z,7.48
2022-11-21T23:14:10.451Z,7.50
2022-11-21T23:16:56.216Z,7.50
2022-11-21T23:19:42.320Z,7.47
2022-11-21T23:22:28.228Z,7.47
2022-11-21T23:25:14.708Z,7.46
2022-11-21T23:28:00.532Z,7.42
2022-11-21T23:30:47.374Z,7.36
2022-11-21T23:33:33.306Z,7.37
2022-11-21T23:36:19.104Z,7.32
2022-11-21T23:39:05.137Z,7.26
2022-11-21T23:41:51.057Z,7.28
2022-11-21T23:44:36.605Z,7.24
2022-11-21T23:47:22.460Z,7.28
2022-11-21T23:50:08.550Z,7.27
2022-11-21T23:52:54.301Z,7.26
2022-11-21T23:55:40.154Z,7.28
2022-11-21T23:58:25.914Z,7.27
